createdAt,value
2023-02-05T00:00:13.937Z,5.60
2023-02-05T00:02:42.482Z,5.40
2023-02-05T00:05:10.642Z,5.35
2023-02-05T00:07:38.901Z,5.78
2023-02-05T00:10:07.792Z,5.32
2023-02-05T00:12:36.113Z,5.13
2023-02-05T00:15:04.397Z,5.53
2023-02-05T00:17:36.479Z,5.82
2023-02-05T00:20:05.708Z,5.82
2023-02-05T00:22:34.055Z,6.57
2023-02-05T00:25:02.520Z,6.50
2023-02-05T00:27:30.665Z,7.05
2023-02-05T00:29:58.883Z,6.85
2023-02-05T00:32:27.210Z,6.65
2023-02-05T00:34:56.891Z,6.55
2023-02-05T00:37:24.970Z,6.38
2023-02-05T00:39:53.443Z,6.88
2023-02-05T00:42:21.510Z,7.22
2023-02-05T00:44:49.822Z,7.55
2023-02-05T00:47:18.121Z,6.50
2023-02-05T00:49:46.403Z,6.78
2023-02-05T00:52:16.114Z,6.80
2023-02-05T00:54:44.540Z,8.90
2023-02-05T00:57:14.360Z,7.38
2023-02-05T00:59:42.572Z,7.22
2023-02-05T01:02:10.920Z,8.93
2023-02-05T01:04:39.196Z,10.77
2023-02-05T01:07:07.403Z,9.00
2023-02-05T01:09:37.174Z,7.78
2023-02-05T01:12:05.624Z,6.55
2023-02-05T01:14:33.806Z,6.85
2023-02-05T01:17:02.035Z,7.28
2023-02-05T01:19:30.237Z,7.30
2023-02-05T01:21:58.361Z,6.68
2023-02-05T01:24:26.724Z,6.82
2023-02-05T01:26:58.905Z,6.13
2023-02-05T01:29:29.262Z,6.18
2023-02-05T01:31:58.371Z,6.40
2023-02-05T01:34:26.578Z,6.78
2023-02-05T01:36:55.607Z,6.03
2023-02-05T01:39:23.863Z,5.57
2023-02-05T01:41:52.001Z,5.97
2023-02-05T01:44:25.020Z,6.43
2023-02-05T01:46:54.559Z,7.43
2023-02-05T01:49:26.823Z,6.88
2023-02-05T01:52:00.200Z,6.38
2023-02-05T01:54:30.362Z,5.78
2023-02-05T01:57:04.247Z,5.82
2023-02-05T01:59:36.921Z,5.95
2023-02-05T02:02:08.266Z,5.90
2023-02-05T02:04:40.380Z,8.45
2023-02-05T02:07:11.121Z,11.65
2023-02-05T02:09:41.357Z,9.38
2023-02-05T02:12:11.117Z,10.73
2023-02-05T02:14:42.908Z,9.48
2023-02-05T02:17:12.508Z,10.32
2023-02-05T02:19:45.880Z,11.77
2023-02-05T02:22:35.388Z,9.75
2023-02-05T02:25:30.606Z,9.90
2023-02-05T02:28:05.062Z,10.68
2023-02-05T02:30:40.014Z,8.80
2023-02-05T02:33:14.999Z,8.55
2023-02-05T02:35:48.119Z,7.57
2023-02-05T02:38:23.098Z,7.72
2023-02-05T02:40:55.117Z,7.63
2023-02-05T02:43:32.796Z,6.72
2023-02-05T02:46:05.237Z,5.60
2023-02-05T02:48:35.730Z,6.35
2023-02-05T02:51:06.574Z,7.05
2023-02-05T02:53:38.758Z,6.30
2023-02-05T02:56:08.493Z,6.70
2023-02-05T02:58:43.597Z,6.18
2023-02-05T03:01:13.411Z,6.18
2023-02-05T03:03:46.448Z,5.57
2023-02-05T03:06:15.975Z,5.63
2023-02-05T03:08:50.776Z,5.40
2023-02-05T03:11:19.180Z,4.82
2023-02-05T03:13:49.225Z,4.88
2023-02-05T03:16:21.647Z,3.72
2023-02-05T03:18:50.683Z,4.25
2023-02-05T03:21:21.185Z,4.57
2023-02-05T03:23:50.056Z,4.90
2023-02-05T03:26:26.264Z,4.50
2023-02-05T03:29:03.755Z,5.05
2023-02-05T03:31:38.586Z,7.47
2023-02-05T03:34:17.485Z,7.03
2023-02-05T03:36:58.497Z,7.80
2023-02-05T03:39:36.896Z,6.43
2023-02-05T03:42:15.630Z,4.55
2023-02-05T03:45:04.785Z,4.05
2023-02-05T03:47:55.927Z,4.28
2023-02-05T03:50:30.715Z,4.38
2023-02-05T03:53:09.174Z,4.05
2023-02-05T03:55:46.112Z,4.13
2023-02-05T03:58:20.206Z,4.10
2023-02-05T04:00:50.317Z,3.72
2023-02-05T04:03:19.488Z,3.95
2023-02-05T04:05:47.718Z,4.22
2023-02-05T04:08:16.658Z,3.92
2023-02-05T04:10:49.396Z,3.47
2023-02-05T04:13:17.707Z,2.95
2023-02-05T04:15:45.886Z,2.65
2023-02-05T04:18:19.204Z,3.13
2023-02-05T04:20:49.482Z,2.55
2023-02-05T04:23:21.426Z,2.92
2023-02-05T04:25:54.329Z,2.67
2023-02-05T04:28:26.847Z,2.53
2023-02-05T04:30:55.133Z,2.50
2023-02-05T04:33:24.899Z,2.53
2023-02-05T04:35:58.158Z,2.22
2023-02-05T04:38:26.421Z,2.10
2023-02-05T04:40:54.682Z,1.95
2023-02-05T04:43:22.972Z,2.05
2023-02-05T04:45:51.400Z,2.03
2023-02-05T04:48:21.467Z,2.10
2023-02-05T04:50:51.158Z,2.15
2023-02-05T04:53:22.922Z,2.15
2023-02-05T04:55:51.140Z,1.75
2023-02-05T04:58:19.068Z,1.85
2023-02-05T05:00:46.888Z,2.05
2023-02-05T05:03:14.801Z,1.67
2023-02-05T05:05:42.679Z,1.70
2023-02-05T05:08:12.060Z,1.75
2023-02-05T05:10:40.148Z,1.70
2023-02-05T05:13:08.138Z,1.90
2023-02-05T05:15:36.203Z,2.28
2023-02-05T05:18:04.588Z,2.50
2023-02-05T05:20:32.418Z,2.20
2023-02-05T05:23:01.630Z,2.33
2023-02-05T05:25:30.922Z,2.60
2023-02-05T05:27:58.888Z,2.15
2023-02-05T05:30:26.861Z,1.90
2023-02-05T05:32:54.893Z,2.10
2023-02-05T05:35:22.814Z,2.38
2023-02-05T05:37:50.662Z,2.42
2023-02-05T05:40:37.494Z,2.50
2023-02-05T05:43:25.351Z,2.45
2023-02-05T05:45:53.665Z,1.95
2023-02-05T05:48:21.474Z,2.40
2023-02-05T05:50:49.264Z,3.10
2023-02-05T05:53:17.265Z,2.05
2023-02-05T05:55:45.312Z,2.05
2023-02-05T05:58:15.061Z,2.08
2023-02-05T06:00:43.493Z,2.10
2023-02-05T06:03:11.768Z,1.90
2023-02-05T06:05:39.828Z,2.25
2023-02-05T06:08:07.663Z,1.80
2023-02-05T06:10:35.606Z,1.90
2023-02-05T06:13:03.419Z,1.38
2023-02-05T06:15:32.918Z,1.70
2023-02-05T06:18:00.904Z,1.35
2023-02-05T06:20:28.717Z,1.50
2023-02-05T06:22:56.531Z,1.42
2023-02-05T06:25:24.334Z,1.30
2023-02-05T06:27:52.109Z,1.55
2023-02-05T06:30:20.340Z,1.30
2023-02-05T06:32:49.433Z,1.58
2023-02-05T06:35:17.321Z,1.20
2023-02-05T06:37:47.586Z,1.20
2023-02-05T06:40:18.346Z,1.00
2023-02-05T06:42:46.452Z,1.35
2023-02-05T06:45:14.368Z,1.30
2023-02-05T06:47:42.213Z,1.20
2023-02-05T06:50:11.679Z,1.20
2023-02-05T06:52:39.481Z,1.23
2023-02-05T06:55:08.119Z,1.10
2023-02-05T06:57:35.907Z,0.70
2023-02-05T07:00:04.707Z,1.08
2023-02-05T07:02:32.822Z,0.85
2023-02-05T07:05:00.506Z,1.67
2023-02-05T07:07:29.833Z,2.40
2023-02-05T07:09:57.619Z,5.07
2023-02-05T07:12:25.587Z,4.05
2023-02-05T07:14:53.292Z,2.78
2023-02-05T07:17:21.156Z,2.13
2023-02-05T07:19:49.269Z,2.00
2023-02-05T07:22:17.182Z,1.90
2023-02-05T07:24:46.486Z,1.75
2023-02-05T07:27:14.194Z,2.08
2023-02-05T07:29:42.226Z,2.22
2023-02-05T07:32:10.129Z,2.20
2023-02-05T07:34:38.075Z,2.83
2023-02-05T07:37:05.853Z,2.13
2023-02-05T07:39:33.790Z,1.50
2023-02-05T07:42:02.928Z,1.95
2023-02-05T07:44:38.762Z,2.20
2023-02-05T07:47:06.644Z,1.77
2023-02-05T07:49:34.427Z,2.05
2023-02-05T07:52:02.360Z,1.73
2023-02-05T07:54:30.235Z,1.88
2023-02-05T07:57:00.239Z,2.10
2023-02-05T07:59:29.859Z,3.50
2023-02-05T08:01:57.691Z,2.00
2023-02-05T08:04:25.544Z,3.03
2023-02-05T08:06:53.428Z,2.55
2023-02-05T08:09:21.365Z,2.55
2023-02-05T08:11:49.019Z,3.78
2023-02-05T08:14:16.918Z,2.85
2023-02-05T08:16:46.228Z,2.47
2023-02-05T08:19:15.809Z,2.28
2023-02-05T08:21:43.811Z,2.72
2023-02-05T08:24:11.770Z,3.22
2023-02-05T08:26:40.576Z,2.80
2023-02-05T08:29:31.607Z,2.58
2023-02-05T08:32:01.092Z,2.53
2023-02-05T08:34:29.703Z,2.13
2023-02-05T08:36:58.191Z,2.83
2023-02-05T08:39:27.290Z,2.22
2023-02-05T08:41:57.018Z,2.25
2023-02-05T08:44:25.460Z,2.10
2023-02-05T08:46:53.594Z,2.25
2023-02-05T08:49:23.320Z,2.70
2023-02-05T08:51:51.366Z,2.38
2023-02-05T08:54:19.562Z,2.47
2023-02-05T08:56:50.432Z,2.60
2023-02-05T08:59:18.873Z,2.55
2023-02-05T09:01:47.222Z,2.92
2023-02-05T09:04:15.828Z,3.55
2023-02-05T09:06:45.752Z,2.70
2023-02-05T09:09:14.383Z,3.40
2023-02-05T09:11:42.322Z,3.10
2023-02-05T09:14:13.442Z,3.25
2023-02-05T09:16:41.894Z,3.25
2023-02-05T09:19:10.491Z,3.17
2023-02-05T09:21:38.379Z,3.25
2023-02-05T09:24:07.825Z,3.20
2023-02-05T09:26:35.837Z,3.40
2023-02-05T09:29:03.559Z,2.90
2023-02-05T09:31:31.710Z,3.30
2023-02-05T09:34:02.147Z,2.63
2023-02-05T09:36:30.150Z,3.05
2023-02-05T09:39:14.075Z,1.92
2023-02-05T09:41:55.264Z,2.13
2023-02-05T09:44:33.993Z,2.10
2023-02-05T09:47:07.874Z,1.83
2023-02-05T09:49:43.704Z,1.15
2023-02-05T09:52:18.865Z,0.90
2023-02-05T09:54:52.472Z,1.60
2023-02-05T09:57:32.609Z,1.30
2023-02-05T10:00:01.139Z,0.73
2023-02-05T10:02:37.133Z,0.73
2023-02-05T10:05:13.829Z,0.63
2023-02-05T10:07:50.571Z,0.75
2023-02-05T10:10:27.199Z,0.80
2023-02-05T10:16:04.880Z,1.17
2023-02-05T10:18:43.336Z,1.10
2023-02-05T10:21:26.129Z,1.05
2023-02-05T10:24:15.398Z,0.95
2023-02-05T10:26:48.579Z,1.40
2023-02-05T10:29:33.832Z,1.17
2023-02-05T10:32:15.581Z,1.10
2023-02-05T10:35:03.161Z,1.30
2023-02-05T10:37:39.881Z,1.15
2023-02-05T10:40:14.432Z,1.48
2023-02-05T10:42:47.212Z,1.77
2023-02-05T10:45:21.444Z,1.55
2023-02-05T10:48:00.547Z,2.05
2023-02-05T10:50:34.248Z,1.23
2023-02-05T10:53:02.557Z,1.70
2023-02-05T10:55:31.116Z,1.60
2023-02-05T10:58:00.774Z,1.60
2023-02-05T11:00:31.059Z,1.50
2023-02-05T11:03:00.183Z,1.80
2023-02-05T11:05:37.154Z,1.20
2023-02-05T11:08:05.512Z,1.27
2023-02-05T11:10:36.161Z,1.38
2023-02-05T11:13:15.819Z,1.20
2023-02-05T11:15:58.180Z,1.20
2023-02-05T11:18:29.027Z,1.40
2023-02-05T11:20:58.390Z,2.05
2023-02-05T11:23:29.871Z,1.27
2023-02-05T11:25:59.679Z,1.90
2023-02-05T11:28:30.125Z,3.30
2023-02-05T11:31:20.865Z,3.03
2023-02-05T11:33:49.446Z,2.10
2023-02-05T11:36:21.765Z,1.88
2023-02-05T11:38:52.290Z,2.28
2023-02-05T11:41:31.866Z,1.20
2023-02-05T11:44:01.358Z,1.77
2023-02-05T11:46:44.873Z,1.70
2023-02-05T11:49:21.715Z,1.67
2023-02-05T11:54:23.225Z,2.30
2023-02-05T11:57:01.993Z,2.20
2023-02-05T11:59:29.916Z,1.50
2023-02-05T12:02:26.180Z,1.45
2023-02-05T12:04:58.853Z,1.33
2023-02-05T12:07:30.420Z,1.38
2023-02-05T12:10:00.125Z,1.30
2023-02-05T12:12:33.396Z,1.95
2023-02-05T12:15:11.113Z,1.50
2023-02-05T12:17:48.808Z,2.00
2023-02-05T12:20:24.814Z,1.40
2023-02-05T12:23:28.387Z,1.30
2023-02-05T12:26:25.132Z,1.60
2023-02-05T12:29:04.431Z,1.60
2023-02-05T12:31:46.226Z,1.70
2023-02-05T12:34:24.924Z,1.98
2023-02-05T12:37:08.960Z,2.80
2023-02-05T12:39:46.451Z,2.25
2023-02-05T12:42:29.819Z,1.70
2023-02-05T12:45:13.123Z,1.98
2023-02-05T12:47:56.344Z,2.10
2023-02-05T12:50:59.983Z,2.95
2023-02-05T12:53:44.406Z,1.70
2023-02-05T12:56:29.586Z,1.90
2023-02-05T12:59:03.641Z,2.25
2023-02-05T13:01:40.633Z,2.50
2023-02-05T13:04:22.760Z,1.85
2023-02-05T13:07:01.012Z,1.45
2023-02-05T13:09:34.400Z,1.63
2023-02-05T13:12:09.013Z,1.60
2023-02-05T13:14:43.006Z,2.17
2023-02-05T13:17:16.370Z,2.10
2023-02-05T13:19:59.090Z,1.90
2023-02-05T13:22:51.244Z,2.50
2023-02-05T13:25:37.979Z,1.70
2023-02-05T13:28:40.780Z,1.80
2023-02-05T13:31:21.018Z,1.33
2023-02-05T13:33:49.655Z,4.30
2023-02-05T13:36:54.972Z,2.80
2023-02-05T13:40:09.198Z,2.10
2023-02-05T13:42:55.044Z,3.22
2023-02-05T13:45:48.490Z,2.25
2023-02-05T13:48:56.752Z,2.88
2023-02-05T13:54:57.939Z,1.95
2023-02-05T13:58:02.028Z,1.83
2023-02-05T14:00:32.538Z,1.20
2023-02-05T14:03:05.875Z,1.77
2023-02-05T14:05:36.851Z,1.88
2023-02-05T14:08:07.750Z,2.10
2023-02-05T14:10:40.530Z,1.60
2023-02-05T14:13:18.308Z,1.73
2023-02-05T14:15:48.009Z,1.50
2023-02-05T14:18:46.961Z,1.52
2023-02-05T14:21:47.778Z,1.67
2023-02-05T14:24:41.818Z,1.70
2023-02-05T14:27:51.613Z,1.30
2023-02-05T14:30:52.608Z,1.48
2023-02-05T14:33:38.914Z,1.73
2023-02-05T14:36:33.442Z,1.67
2023-02-05T14:39:18.072Z,1.60
2023-02-05T14:41:55.297Z,1.65
2023-02-05T14:44:27.948Z,1.45
2023-02-05T14:47:04.674Z,1.63
2023-02-05T14:49:43.985Z,1.15
2023-02-05T14:52:29.936Z,1.50
2023-02-05T14:55:02.680Z,1.58
2023-02-05T14:57:41.636Z,1.65
2023-02-05T15:00:28.138Z,1.60
2023-02-05T15:03:28.156Z,1.52
2023-02-05T15:06:03.470Z,1.40
2023-02-05T15:08:50.032Z,2.05
2023-02-05T15:11:27.815Z,2.38
2023-02-05T15:14:32.842Z,2.20
2023-02-05T15:17:38.187Z,3.58
2023-02-05T15:20:19.243Z,3.38
2023-02-05T15:22:55.255Z,3.35
2023-02-05T15:25:37.100Z,3.05
2023-02-05T15:28:15.428Z,3.45
2023-02-05T15:30:58.085Z,2.67
2023-02-05T15:33:34.663Z,3.03
2023-02-05T15:36:08.787Z,2.70
2023-02-05T15:38:46.433Z,2.40
2023-02-05T15:41:16.513Z,1.95
2023-02-05T15:44:00.317Z,1.80
2023-02-05T15:46:29.752Z,2.88
2023-02-05T15:48:58.927Z,2.92
2023-02-05T15:51:32.094Z,3.60
2023-02-05T15:54:04.769Z,2.70
2023-02-05T15:56:38.919Z,2.83
2023-02-05T15:59:17.427Z,3.10
2023-02-05T16:01:50.949Z,4.38
2023-02-05T16:04:27.287Z,3.17
2023-02-05T16:06:55.423Z,2.80
2023-02-05T16:09:26.684Z,2.42
2023-02-05T16:11:55.966Z,1.92
2023-02-05T16:14:25.400Z,2.00
2023-02-05T16:17:07.555Z,2.88
2023-02-05T16:19:41.767Z,2.65
2023-02-05T16:22:23.914Z,2.30
2023-02-05T16:24:57.292Z,2.22
2023-02-05T16:27:34.045Z,2.42
2023-02-05T16:30:08.243Z,3.08
2023-02-05T16:32:39.757Z,2.85
2023-02-05T16:35:14.832Z,2.30
2023-02-05T16:37:44.374Z,2.22
2023-02-05T16:40:14.913Z,2.28
2023-02-05T16:42:46.510Z,2.20
2023-02-05T16:45:23.643Z,1.95
2023-02-05T16:48:21.806Z,2.00
2023-02-05T16:50:51.013Z,1.98
2023-02-05T16:53:23.316Z,2.13
2023-02-05T16:56:02.242Z,1.90
2023-02-05T16:58:37.644Z,1.73
2023-02-05T17:01:05.979Z,1.85
2023-02-05T17:03:36.763Z,1.85
2023-02-05T17:06:11.820Z,2.28
2023-02-05T17:08:40.687Z,1.70
2023-02-05T17:11:34.369Z,4.68
2023-02-05T17:14:27.606Z,4.05
2023-02-05T17:16:57.081Z,3.92
2023-02-05T17:19:27.875Z,2.80
2023-02-05T17:22:19.601Z,2.58
2023-02-05T17:24:50.679Z,2.10
2023-02-05T17:27:25.264Z,2.22
2023-02-05T17:29:58.623Z,1.77
2023-02-05T17:32:28.177Z,1.95
2023-02-05T17:35:03.314Z,2.50
2023-02-05T17:37:32.427Z,2.78
2023-02-05T17:40:00.225Z,2.83
2023-02-05T17:42:31.529Z,3.22
2023-02-05T17:44:59.713Z,3.67
2023-02-05T17:47:27.769Z,5.30
2023-02-05T17:49:57.081Z,4.97
2023-02-05T17:52:26.180Z,3.30
2023-02-05T17:54:54.417Z,3.78
2023-02-05T17:57:23.712Z,3.50
2023-02-05T17:59:54.742Z,3.40
2023-02-05T18:02:24.768Z,3.45
2023-02-05T18:04:53.457Z,3.33
2023-02-05T18:07:33.328Z,2.97
2023-02-05T18:10:01.435Z,2.60
2023-02-05T18:12:30.053Z,2.42
2023-02-05T18:15:00.303Z,2.92
2023-02-05T18:17:31.002Z,2.55
2023-02-05T18:19:59.799Z,2.58
2023-02-05T18:22:27.567Z,3.17
2023-02-05T18:24:56.710Z,2.72
2023-02-05T18:27:30.881Z,2.80
2023-02-05T18:30:07.659Z,3.78
2023-02-05T18:32:36.786Z,6.40
2023-02-05T18:35:06.200Z,6.43
2023-02-05T18:37:37.202Z,6.50
2023-02-05T18:40:08.737Z,6.85
2023-02-05T18:42:44.992Z,8.25
2023-02-05T18:45:21.988Z,7.28
2023-02-05T18:47:52.993Z,8.25
2023-02-05T18:50:21.004Z,7.28
2023-02-05T18:52:53.920Z,6.80
2023-02-05T18:55:23.661Z,6.22
2023-02-05T18:57:52.594Z,4.95
2023-02-05T19:00:22.286Z,7.78
2023-02-05T19:02:50.722Z,6.80
2023-02-05T19:05:19.038Z,5.65
2023-02-05T19:07:48.022Z,5.35
2023-02-05T19:10:16.581Z,4.72
2023-02-05T19:12:45.171Z,4.55
2023-02-05T19:15:12.969Z,4.20
2023-02-05T19:17:42.337Z,3.85
2023-02-05T19:20:10.745Z,3.55
2023-02-05T19:22:38.357Z,3.10
2023-02-05T19:25:06.833Z,2.58
2023-02-05T19:27:34.880Z,2.60
2023-02-05T19:30:03.048Z,2.10
2023-02-05T19:32:31.821Z,4.50
2023-02-05T19:35:03.575Z,3.53
2023-02-05T19:37:32.026Z,4.45
2023-02-05T19:40:00.038Z,5.15
2023-02-05T19:42:30.529Z,4.13
2023-02-05T19:44:58.378Z,4.22
2023-02-05T19:47:28.422Z,4.57
2023-02-05T19:49:57.376Z,3.65
2023-02-05T19:52:26.871Z,3.30
2023-02-05T19:54:54.941Z,3.30
2023-02-05T19:57:23.114Z,3.47
2023-02-05T19:59:51.178Z,4.30
2023-02-05T20:02:19.749Z,3.10
2023-02-05T20:04:47.787Z,4.07
2023-02-05T20:07:15.841Z,3.60
2023-02-05T20:09:45.543Z,2.78
2023-02-05T20:12:13.456Z,3.53
2023-02-05T20:14:41.324Z,3.50
2023-02-05T20:17:09.485Z,3.05
2023-02-05T20:19:37.773Z,1.95
2023-02-05T20:22:06.667Z,2.05
2023-02-05T20:24:34.746Z,2.50
2023-02-05T20:27:04.254Z,2.22
2023-02-05T20:29:50.931Z,2.10
2023-02-05T20:32:18.901Z,2.72
2023-02-05T20:34:50.517Z,3.45
2023-02-05T20:37:21.485Z,5.57
2023-02-05T20:39:49.430Z,3.97
2023-02-05T20:42:18.666Z,2.53
2023-02-05T20:44:46.737Z,2.63
2023-02-05T20:47:19.024Z,1.70
2023-02-05T20:49:47.937Z,2.35
2023-02-05T20:52:18.269Z,2.45
2023-02-05T20:54:46.968Z,1.80
2023-02-05T20:57:15.077Z,2.13
2023-02-05T20:59:44.856Z,1.95
2023-02-05T21:02:14.167Z,1.60
2023-02-05T21:04:42.463Z,1.88
2023-02-05T21:07:10.438Z,2.25
2023-02-05T21:09:38.375Z,1.77
2023-02-05T21:12:07.466Z,1.30
2023-02-05T21:14:35.978Z,1.08
2023-02-05T21:17:09.563Z,1.00
2023-02-05T21:19:38.837Z,1.35
2023-02-05T21:22:06.704Z,1.40
2023-02-05T21:24:34.704Z,1.25
2023-02-05T21:27:02.758Z,1.42
2023-02-05T21:29:30.387Z,1.77
2023-02-05T21:31:58.296Z,1.50
2023-02-05T21:34:29.549Z,1.42
2023-02-05T21:36:57.678Z,1.70
2023-02-05T21:39:31.302Z,1.30
2023-02-05T21:41:59.886Z,1.45
2023-02-05T21:44:28.389Z,2.78
2023-02-05T21:46:57.248Z,2.95
2023-02-05T21:49:27.038Z,1.83
2023-02-05T21:51:56.481Z,1.88
2023-02-05T21:54:25.921Z,1.58
2023-02-05T21:56:54.760Z,1.42
2023-02-05T21:59:23.412Z,2.00
2023-02-05T22:01:52.327Z,2.42
2023-02-05T22:04:20.728Z,3.97
2023-02-05T22:06:51.172Z,4.57
2023-02-05T22:09:20.333Z,4.70
2023-02-05T22:11:51.027Z,4.05
2023-02-05T22:14:19.621Z,4.15
2023-02-05T22:16:48.744Z,3.60
2023-02-05T22:19:19.496Z,3.53
2023-02-05T22:21:50.139Z,3.03
2023-02-05T22:24:20.218Z,2.55
2023-02-05T22:26:49.321Z,2.30
2023-02-05T22:29:19.429Z,1.73
2023-02-05T22:31:51.617Z,3.40
2023-02-05T22:34:20.197Z,5.65
2023-02-05T22:36:50.243Z,3.42
2023-02-05T22:39:18.739Z,2.38
2023-02-05T22:41:47.250Z,2.00
2023-02-05T22:44:15.724Z,1.48
2023-02-05T22:46:45.052Z,1.45
2023-02-05T22:49:17.426Z,1.13
2023-02-05T22:51:46.109Z,1.40
2023-02-05T22:54:16.654Z,1.05
2023-02-05T22:56:46.165Z,2.35
2023-02-05T22:59:14.532Z,2.20
2023-02-05T23:01:43.051Z,1.50
2023-02-05T23:04:11.552Z,1.50
2023-02-05T23:06:41.700Z,1.35
2023-02-05T23:09:12.746Z,1.40
2023-02-05T23:12:03.607Z,1.50
2023-02-05T23:14:31.906Z,1.50
2023-02-05T23:17:00.302Z,1.00
2023-02-05T23:19:28.667Z,1.20
2023-02-05T23:21:56.954Z,0.90
2023-02-05T23:24:25.098Z,0.68
2023-02-05T23:26:54.837Z,0.55
2023-02-05T23:29:24.798Z,0.52
2023-02-05T23:31:52.965Z,0.80
2023-02-05T23:34:21.216Z,0.80
2023-02-05T23:36:49.422Z,0.90
2023-02-05T23:39:17.627Z,0.88
2023-02-05T23:41:46.252Z,0.68
2023-02-05T23:44:18.250Z,0.75
2023-02-05T23:46:49.671Z,0.80
2023-02-05T23:49:21.328Z,0.95
2023-02-05T23:51:50.356Z,1.15
2023-02-05T23:54:18.929Z,0.93
2023-02-05T23:56:47.932Z,0.88
2023-02-05T23:59:16.835Z,0.50
